Time;durP1;ratioP1;P1;durP2;ratioP2;P2;SDS_P1;SDS_P2;PMS_P1;PMS_P2;Temp;Humidity;BMP_temperature;BMP_pressure;BME280_temperature;BME280_humidity;BME280_pressure;Samples;Min_cycle;Max_cycle;Signal;HPM_P1;HPM_P2
2022/10/30 00:00:54;;;;;;;13.82;3.15;;;15.40;99.90;;;;;;5083949;28;20123;-72
2022/10/30 00:03:19;;;;;;;8.20;2.70;;;15.50;99.90;;;;;;5083493;28;20487;-70
2022/10/30 00:05:47;;;;;;;7.05;2.97;;;15.50;99.90;;;;;;5084310;28;20116;-70
2022/10/30 00:08:15;;;;;;;9.98;3.55;;;15.50;99.90;;;;;;5084187;28;20555;-70
2022/10/30 00:10:42;;;;;;;14.77;4.07;;;15.50;99.90;;;;;;5094947;27;20479;-71
2022/10/30 00:13:08;;;;;;;22.88;6.07;;;15.50;99.90;;;;;;5104103;27;20491;-70
2022/10/30 00:15:34;;;;;;;11.10;3.75;;;15.50;99.90;;;;;;5103937;28;20032;-70
2022/10/30 00:18:00;;;;;;;11.27;3.22;;;15.50;99.90;;;;;;5107326;27;20068;-70
2022/10/30 00:20:26;;;;;;;13.43;3.85;;;15.50;99.90;;;;;;5104328;27;20605;-70
2022/10/30 00:22:51;;;;;;;6.28;2.65;;;15.50;99.90;;;;;;5104497;28;20080;-70
2022/10/30 00:25:17;;;;;;;11.10;3.20;;;15.50;99.90;;;;;;5104795;28;20483;-69
2022/10/30 00:27:42;;;;;;;7.07;2.90;;;15.40;99.90;;;;;;5103432;28;20031;-70
2022/10/30 00:30:09;;;;;;;11.35;4.70;;;15.40;99.90;;;;;;5103832;28;20031;-69
2022/10/30 00:32:34;;;;;;;10.23;3.05;;;15.40;99.90;;;;;;5104058;28;20055;-69
2022/10/30 00:35:00;;;;;;;12.63;2.90;;;15.30;99.90;;;;;;5103570;28;20058;-71
2022/10/30 00:37:25;;;;;;;13.15;3.40;;;15.30;99.90;;;;;;5104463;28;20039;-70
2022/10/30 00:39:51;;;;;;;6.72;3.17;;;15.30;99.90;;;;;;5102980;28;20039;-71
2022/10/30 00:42:16;;;;;;;10.35;3.20;;;15.30;99.90;;;;;;5103480;27;20046;-70
2022/10/30 00:44:48;;;;;;;9.65;3.60;;;15.30;99.90;;;;;;5103670;28;20437;-70
2022/10/30 00:47:25;;;;;;;9.57;3.55;;;15.30;99.90;;;;;;5099532;27;20152;-71
2022/10/30 00:50:00;;;;;;;11.05;3.35;;;15.30;99.90;;;;;;5104728;27;20499;-71
2022/10/30 00:52:30;;;;;;;10.38;3.13;;;15.30;99.90;;;;;;5107512;27;20047;-70
2022/10/30 00:54:57;;;;;;;9.70;3.25;;;15.20;99.90;;;;;;5107562;28;20047;-71
2022/10/30 00:57:23;;;;;;;11.50;3.38;;;15.20;99.90;;;;;;5106068;28;20123;-70
2022/10/30 00:59:49;;;;;;;9.50;3.08;;;15.20;99.90;;;;;;5108110;28;20051;-69
2022/10/30 01:02:15;;;;;;;8.13;2.92;;;15.20;99.90;;;;;;5107743;27;20466;-73
2022/10/30 01:04:42;;;;;;;11.75;3.95;;;15.20;99.90;;;;;;5105250;28;20035;-70
2022/10/30 01:07:11;;;;;;;10.52;3.88;;;15.20;99.90;;;;;;5102151;28;20043;-71
2022/10/30 01:09:38;;;;;;;13.00;3.55;;;15.20;99.90;;;;;;5103459;28;20511;-69
2022/10/30 01:12:04;;;;;;;13.80;3.67;;;15.20;99.90;;;;;;5107459;28;20040;-70
2022/10/30 01:14:32;;;;;;;8.80;3.33;;;15.20;99.90;;;;;;5106674;27;20070;-71
2022/10/30 01:17:17;;;;;;;10.40;3.10;;;15.10;99.90;;;;;;5105685;28;20451;-70
2022/10/30 01:20:27;;;;;;;10.48;3.22;;;15.10;99.90;;;;;;5086967;28;20138;-70
2022/10/30 01:23:21;;;;;;;10.27;3.78;;;15.10;99.90;;;;;;5096023;27;20051;-70
2022/10/30 01:26:35;;;;;;;16.20;2.97;;;15.00;99.90;;;;;;5103850;27;20073;-70
2022/10/30 01:29:09;;;;;;;14.63;3.25;;;15.00;99.90;;;;;;5088089;27;20403;-70
2022/10/30 01:31:41;;;;;;;12.48;3.40;;;15.00;99.90;;;;;;5102897;28;20032;-71
2022/10/30 01:34:17;;;;;;;20.85;3.88;;;15.00;99.90;;;;;;5102259;27;20040;-70
2022/10/30 01:36:59;;;;;;;10.55;4.05;;;15.00;99.90;;;;;;5083763;28;20094;-70
2022/10/30 01:39:34;;;;;;;8.80;3.17;;;15.00;99.90;;;;;;5086631;28;20115;-70
2022/10/30 01:42:06;;;;;;;11.02;3.10;;;15.00;99.90;;;;;;5086421;28;20489;-70
2022/10/30 01:44:32;;;;;;;14.57;3.28;;;15.00;99.90;;;;;;5086175;28;20169;-69
2022/10/30 01:47:17;;;;;;;8.85;3.00;;;15.00;99.90;;;;;;5087288;28;20135;-69
2022/10/30 01:49:54;;;;;;;5.65;3.05;;;15.00;99.90;;;;;;5083865;28;20404;-71
2022/10/30 01:52:45;;;;;;;9.45;2.85;;;14.90;99.90;;;;;;5086616;28;20040;-70
2022/10/30 01:55:36;;;;;;;13.32;3.35;;;14.90;99.90;;;;;;5083370;28;20043;-70
2022/10/30 01:58:20;;;;;;;10.80;3.03;;;14.90;99.90;;;;;;5084962;28;20104;-70
2022/10/30 02:00:51;;;;;;;9.48;3.28;;;14.90;99.90;;;;;;5083185;28;20678;-69
2022/10/30 02:03:17;;;;;;;10.93;3.25;;;14.90;99.90;;;;;;5086284;28;20039;-70
2022/10/30 02:05:47;;;;;;;12.25;4.15;;;14.90;99.90;;;;;;5084795;28;20032;-70
2022/10/30 02:08:13;;;;;;;10.57;3.85;;;14.80;99.90;;;;;;5086593;28;20059;-70
2022/10/30 02:10:41;;;;;;;12.75;3.88;;;14.80;99.90;;;;;;5084876;28;20876;-71
2022/10/30 02:13:07;;;;;;;8.82;3.47;;;14.80;99.90;;;;;;5084964;28;20043;-69
2022/10/30 02:15:34;;;;;;;12.70;3.78;;;14.80;99.90;;;;;;5081966;28;20157;-69
2022/10/30 02:17:59;;;;;;;9.80;3.40;;;14.80;99.90;;;;;;5086503;28;20857;-70
2022/10/30 02:20:25;;;;;;;16.13;3.67;;;14.80;99.90;;;;;;5085908;28;20038;-70
2022/10/30 02:22:51;;;;;;;6.25;2.90;;;14.80;99.90;;;;;;5086295;28;20047;-70
2022/10/30 02:25:16;;;;;;;12.82;3.60;;;14.80;99.90;;;;;;5085610;28;20044;-71
2022/10/30 02:27:42;;;;;;;8.13;3.15;;;14.70;99.90;;;;;;5086436;28;20043;-70
2022/10/30 02:30:08;;;;;;;13.32;3.00;;;14.70;99.90;;;;;;5086529;28;20042;-69
2022/10/30 02:32:34;;;;;;;12.20;3.15;;;14.80;99.90;;;;;;5085492;28;20032;-70
2022/10/30 02:34:59;;;;;;;10.75;3.40;;;14.80;99.90;;;;;;5085689;28;20823;-70
2022/10/30 02:37:26;;;;;;;16.08;3.88;;;14.80;99.90;;;;;;5085857;28;20040;-70
2022/10/30 02:39:52;;;;;;;10.80;3.75;;;14.80;99.90;;;;;;5086453;28;20481;-70
2022/10/30 02:42:17;;;;;;;20.65;3.83;;;14.70;99.90;;;;;;5085602;28;20032;-70
2022/10/30 02:44:43;;;;;;;16.48;3.67;;;14.70;99.90;;;;;;5084980;28;20036;-70
2022/10/30 02:47:09;;;;;;;8.93;3.33;;;14.80;99.90;;;;;;5084551;28;20484;-70
2022/10/30 02:49:36;;;;;;;12.02;3.67;;;14.70;99.90;;;;;;5085785;28;20147;-70
2022/10/30 02:52:01;;;;;;;11.60;3.22;;;14.70;99.90;;;;;;5081437;28;20136;-71
2022/10/30 02:54:27;;;;;;;12.23;4.15;;;14.80;99.90;;;;;;5084918;28;20107;-70
2022/10/30 02:56:52;;;;;;;12.45;3.55;;;14.70;99.90;;;;;;5086079;28;20043;-70
2022/10/30 02:59:19;;;;;;;14.60;3.83;;;14.70;99.90;;;;;;5085366;28;20039;-71
2022/10/30 03:01:45;;;;;;;14.20;3.85;;;14.70;99.90;;;;;;5085169;28;20058;-69
2022/10/30 03:04:10;;;;;;;8.57;4.00;;;14.70;99.90;;;;;;5083444;28;20472;-70
2022/10/30 03:06:36;;;;;;;13.98;3.60;;;14.70;99.90;;;;;;5085691;28;20489;-70
2022/10/30 03:09:01;;;;;;;14.07;3.63;;;14.60;99.90;;;;;;5085351;28;20032;-69
2022/10/30 03:11:27;;;;;;;13.50;3.67;;;14.60;99.90;;;;;;5084023;28;20176;-70
2022/10/30 03:13:53;;;;;;;22.52;4.53;;;14.60;99.90;;;;;;5083556;28;20040;-70
2022/10/30 03:16:22;;;;;;;16.40;3.75;;;14.60;99.90;;;;;;5084904;28;20033;-71
2022/10/30 03:18:48;;;;;;;10.20;3.40;;;14.60;99.90;;;;;;5085037;28;20043;-71
2022/10/30 03:21:17;;;;;;;6.47;3.13;;;14.60;99.90;;;;;;5085127;28;20357;-71
2022/10/30 03:23:43;;;;;;;20.10;3.90;;;14.60;99.90;;;;;;5084640;28;20036;-69
2022/10/30 03:26:09;;;;;;;15.30;3.60;;;14.50;99.90;;;;;;5084806;28;20398;-69
2022/10/30 03:28:35;;;;;;;9.52;3.17;;;14.50;99.90;;;;;;5085174;28;20518;-70
2022/10/30 03:31:12;;;;;;;7.72;3.15;;;14.50;99.90;;;;;;5084978;28;20054;-70
2022/10/30 03:33:38;;;;;;;11.00;4.57;;;14.50;99.90;;;;;;5081133;28;20965;-72
2022/10/30 03:36:05;;;;;;;13.10;3.58;;;14.40;99.90;;;;;;5083475;28;20111;-69
2022/10/30 03:38:31;;;;;;;13.05;4.05;;;14.40;99.90;;;;;;5083457;28;20169;-70
2022/10/30 03:40:56;;;;;;;14.05;3.63;;;14.40;99.90;;;;;;5085201;28;20032;-70
2022/10/30 03:43:22;;;;;;;15.82;4.55;;;14.40;99.90;;;;;;5082714;28;20039;-69
2022/10/30 03:45:49;;;;;;;12.10;4.20;;;14.30;99.90;;;;;;5084802;28;20043;-68
2022/10/30 03:48:16;;;;;;;12.30;3.95;;;14.30;99.90;;;;;;5083040;28;20031;-70
2022/10/30 03:50:42;;;;;;;13.02;4.43;;;14.30;99.90;;;;;;5083889;28;20116;-71
2022/10/30 03:53:08;;;;;;;11.98;3.90;;;14.30;99.90;;;;;;5084257;28;20789;-69
2022/10/30 03:55:34;;;;;;;19.23;3.85;;;14.30;99.90;;;;;;5084386;28;20084;-70
2022/10/30 03:57:59;;;;;;;11.23;3.47;;;14.30;99.90;;;;;;5084081;28;20059;-70
2022/10/30 04:00:25;;;;;;;16.65;3.80;;;14.20;99.90;;;;;;5084649;28;20074;-70
2022/10/30 04:02:51;;;;;;;19.27;4.20;;;14.20;99.90;;;;;;5084548;28;20040;-69
2022/10/30 04:05:19;;;;;;;12.15;3.65;;;14.30;99.90;;;;;;5084545;28;20059;-70
2022/10/30 04:07:46;;;;;;;9.25;3.97;;;14.20;99.90;;;;;;5084756;28;20054;-70
2022/10/30 04:10:13;;;;;;;11.18;4.53;;;14.20;99.90;;;;;;5084735;28;20032;-70
2022/10/30 04:12:39;;;;;;;11.90;5.03;;;14.20;99.90;;;;;;5079267;28;20029;-70
2022/10/30 04:15:06;;;;;;;16.00;4.30;;;14.20;99.90;;;;;;5084562;28;20190;-70
2022/10/30 04:17:32;;;;;;;9.13;3.75;;;14.20;99.90;;;;;;5085385;28;20139;-70
2022/10/30 04:19:58;;;;;;;8.63;3.03;;;14.10;99.90;;;;;;5083518;28;20548;-70
2022/10/30 04:22:23;;;;;;;10.02;3.47;;;14.20;99.90;;;;;;5084670;28;20107;-69
2022/10/30 04:24:49;;;;;;;14.05;4.43;;;14.10;99.90;;;;;;5084000;28;21101;-71
2022/10/30 04:27:15;;;;;;;10.65;3.83;;;14.20;99.90;;;;;;5085673;28;20046;-72
2022/10/30 04:29:41;;;;;;;13.38;4.63;;;14.20;99.90;;;;;;5106801;28;20028;-70
2022/10/30 04:32:07;;;;;;;10.85;3.80;;;14.20;99.90;;;;;;5108852;28;20043;-69
2022/10/30 04:34:33;;;;;;;11.43;3.13;;;14.10;99.90;;;;;;5107614;27;20047;-70
2022/10/30 04:36:59;;;;;;;10.48;4.18;;;14.10;99.90;;;;;;5108170;28;20066;-70
2022/10/30 04:39:24;;;;;;;11.30;3.90;;;14.10;99.90;;;;;;5108867;28;20100;-69
2022/10/30 04:41:50;;;;;;;9.48;3.30;;;14.10;99.90;;;;;;5108999;27;20035;-69
2022/10/30 04:44:16;;;;;;;26.15;3.67;;;14.10;99.90;;;;;;5107573;27;20119;-69
2022/10/30 04:46:41;;;;;;;10.40;4.00;;;14.10;99.90;;;;;;5108497;27;20058;-70
2022/10/30 04:49:07;;;;;;;12.13;4.30;;;14.10;99.90;;;;;;5108600;28;20032;-71
2022/10/30 04:51:33;;;;;;;12.90;3.45;;;14.10;99.90;;;;;;5108499;28;20032;-72
2022/10/30 04:53:58;;;;;;;11.98;3.72;;;14.10;99.90;;;;;;5107777;27;20081;-70
2022/10/30 04:56:24;;;;;;;12.20;4.43;;;14.00;99.90;;;;;;5108625;28;20031;-70
2022/10/30 04:58:49;;;;;;;12.70;4.57;;;14.00;99.90;;;;;;5108778;27;20545;-70
2022/10/30 05:01:15;;;;;;;9.32;3.72;;;14.00;99.90;;;;;;5108425;27;20666;-69
2022/10/30 05:03:41;;;;;;;17.90;4.18;;;14.00;99.90;;;;;;5102943;28;20114;-69
2022/10/30 05:06:17;;;;;;;14.23;4.75;;;14.00;99.90;;;;;;5108289;27;20031;-70
2022/10/30 05:08:42;;;;;;;11.98;3.92;;;14.00;99.90;;;;;;5108415;28;20427;-70
2022/10/30 05:11:08;;;;;;;14.60;4.20;;;14.00;99.90;;;;;;5105267;27;20038;-71
2022/10/30 05:13:33;;;;;;;17.33;4.13;;;14.00;99.90;;;;;;5101225;28;20429;-70
2022/10/30 05:15:59;;;;;;;13.20;4.53;;;14.00;99.90;;;;;;5107949;27;20039;-70
2022/10/30 05:18:25;;;;;;;11.00;4.03;;;14.00;99.90;;;;;;5108101;28;20038;-70
2022/10/30 05:20:50;;;;;;;12.27;4.28;;;14.00;99.90;;;;;;5106453;28;20043;-69
2022/10/30 05:23:16;;;;;;;12.77;4.50;;;14.00;99.90;;;;;;5107417;28;20031;-69
2022/10/30 05:25:41;;;;;;;23.23;4.90;;;14.00;99.90;;;;;;5103732;27;20515;-70
2022/10/30 05:28:08;;;;;;;7.65;3.42;;;14.10;99.90;;;;;;5087098;28;20093;-70
2022/10/30 05:30:34;;;;;;;22.52;3.67;;;14.00;99.90;;;;;;5087248;28;20671;-70
2022/10/30 05:33:08;;;;;;;13.80;4.45;;;14.00;99.90;;;;;;5085733;28;20081;-70
2022/10/30 05:35:35;;;;;;;11.38;4.00;;;14.00;99.90;;;;;;5085575;28;20036;-70
2022/10/30 05:38:02;;;;;;;8.38;3.45;;;13.90;99.90;;;;;;5087121;28;20689;-70
2022/10/30 05:40:28;;;;;;;15.35;4.22;;;13.90;99.90;;;;;;5087571;28;20502;-69
2022/10/30 05:42:54;;;;;;;10.80;4.72;;;13.90;99.90;;;;;;5087715;28;20598;-69
2022/10/30 05:45:19;;;;;;;11.90;3.92;;;13.90;99.90;;;;;;5090176;28;20509;-71
2022/10/30 05:48:02;;;;;;;13.10;4.40;;;13.90;99.90;;;;;;5088000;28;20393;-70
2022/10/30 05:50:29;;;;;;;20.15;4.00;;;13.80;99.90;;;;;;5104849;27;20031;-69
2022/10/30 05:52:55;;;;;;;12.15;4.05;;;13.80;99.90;;;;;;5107952;27;20100;-69
2022/10/30 05:55:21;;;;;;;10.82;4.18;;;13.80;99.90;;;;;;5098543;27;20038;-69
2022/10/30 05:57:47;;;;;;;8.93;3.40;;;13.70;99.90;;;;;;5104040;27;20118;-69
2022/10/30 06:00:13;;;;;;;10.55;3.95;;;13.70;99.90;;;;;;5107106;27;20040;-69
2022/10/30 06:02:38;;;;;;;11.70;4.40;;;13.60;99.90;;;;;;5089032;27;20067;-70
2022/10/30 06:05:04;;;;;;;10.05;4.43;;;13.60;99.90;;;;;;5106748;28;20063;-69
2022/10/30 06:07:30;;;;;;;14.45;4.50;;;13.60;99.90;;;;;;5107080;28;20038;-70
2022/10/30 06:09:55;;;;;;;17.20;5.45;;;13.60;99.90;;;;;;5107185;27;20044;-70
2022/10/30 06:12:21;;;;;;;11.88;4.78;;;13.70;99.90;;;;;;5106365;28;20371;-69
2022/10/30 06:14:46;;;;;;;18.35;4.78;;;13.60;99.90;;;;;;5106535;28;20028;-70
2022/10/30 06:17:12;;;;;;;23.23;4.85;;;13.60;99.90;;;;;;5105654;28;20092;-72
2022/10/30 06:19:39;;;;;;;13.00;4.13;;;13.60;99.90;;;;;;5093078;27;20040;-72
2022/10/30 06:22:05;;;;;;;12.93;4.20;;;13.60;99.90;;;;;;5084633;28;20381;-70
2022/10/30 06:24:30;;;;;;;13.40;4.55;;;13.50;99.90;;;;;;5085472;28;20046;-70
2022/10/30 06:26:58;;;;;;;12.43;4.07;;;13.50;99.90;;;;;;5086760;28;20500;-71
2022/10/30 06:29:23;;;;;;;16.58;4.97;;;13.50;99.90;;;;;;5085688;28;20035;-71
2022/10/30 06:31:49;;;;;;;10.65;4.28;;;13.40;99.90;;;;;;5084978;28;20044;-71
2022/10/30 06:34:14;;;;;;;12.60;4.70;;;13.40;99.90;;;;;;5085461;28;20032;-71
2022/10/30 06:36:40;;;;;;;9.63;3.80;;;13.40;99.90;;;;;;5084368;28;20036;-70
2022/10/30 06:39:05;;;;;;;12.68;4.35;;;13.40;99.90;;;;;;5085982;28;20048;-71
2022/10/30 06:41:32;;;;;;;11.73;4.57;;;13.30;99.90;;;;;;5084192;28;20040;-70
2022/10/30 06:43:58;;;;;;;8.65;4.35;;;13.30;99.90;;;;;;5085644;28;20080;-71
2022/10/30 06:46:24;;;;;;;15.32;5.57;;;13.30;99.90;;;;;;5083790;28;20028;-70
2022/10/30 06:48:49;;;;;;;13.23;3.60;;;13.30;99.90;;;;;;5086106;28;20036;-70
2022/10/30 06:51:15;;;;;;;15.15;5.63;;;13.30;99.90;;;;;;5085383;28;20097;-69
2022/10/30 06:53:41;;;;;;;9.07;3.90;;;13.30;99.90;;;;;;5083051;28;20028;-69
2022/10/30 06:56:08;;;;;;;12.98;4.22;;;13.20;99.90;;;;;;5085308;28;20538;-69
2022/10/30 06:58:37;;;;;;;19.15;4.63;;;13.30;99.90;;;;;;5085264;28;20115;-69
2022/10/30 07:01:07;;;;;;;15.10;5.33;;;13.20;99.90;;;;;;5085482;28;20050;-71
2022/10/30 07:03:33;;;;;;;21.38;5.50;;;13.30;99.90;;;;;;5082426;28;20035;-69
2022/10/30 07:05:58;;;;;;;13.95;4.80;;;13.30;99.90;;;;;;5085888;28;20077;-70
2022/10/30 07:08:24;;;;;;;16.77;5.95;;;13.30;99.90;;;;;;5085046;28;20035;-70
2022/10/30 07:10:50;;;;;;;17.60;5.05;;;13.30;99.90;;;;;;5084791;28;20066;-72
2022/10/30 07:13:15;;;;;;;14.50;4.18;;;13.30;99.90;;;;;;5084680;28;20042;-71
2022/10/30 07:15:41;;;;;;;19.83;5.32;;;13.30;99.90;;;;;;5082371;28;20028;-69
2022/10/30 07:18:08;;;;;;;10.93;4.03;;;13.30;99.90;;;;;;5084951;28;20040;-70
2022/10/30 07:20:34;;;;;;;18.52;5.15;;;13.40;99.90;;;;;;5083254;28;20050;-70
2022/10/30 07:23:00;;;;;;;13.82;4.90;;;13.40;99.90;;;;;;5084332;28;20032;-71
2022/10/30 07:25:26;;;;;;;11.48;4.43;;;13.40;99.90;;;;;;5084186;28;20127;-70
2022/10/30 07:27:54;;;;;;;12.07;4.85;;;13.40;99.90;;;;;;5067197;28;20052;-70
2022/10/30 07:30:23;;;;;;;14.98;4.60;;;13.50;99.90;;;;;;5084081;28;20123;-70
2022/10/30 07:32:59;;;;;;;10.85;5.07;;;13.50;99.90;;;;;;5083621;28;20492;-69
2022/10/30 07:35:25;;;;;;;15.38;5.22;;;13.60;99.90;;;;;;5081904;28;20088;-71
2022/10/30 07:37:51;;;;;;;26.02;5.70;;;13.70;99.90;;;;;;5084000;28;20539;-69
2022/10/30 07:40:17;;;;;;;10.52;3.92;;;13.80;99.90;;;;;;5082765;28;20221;-69
2022/10/30 07:42:43;;;;;;;10.88;4.00;;;13.90;99.90;;;;;;5088138;28;20543;-69
2022/10/30 07:45:09;;;;;;;17.92;5.22;;;14.00;99.90;;;;;;5084701;28;20522;-69
2022/10/30 07:47:44;;;;;;;11.95;4.15;;;14.10;99.90;;;;;;5081314;28;20114;-70
2022/10/30 07:50:10;;;;;;;17.63;4.78;;;14.20;99.90;;;;;;5083344;28;20032;-70
2022/10/30 07:52:36;;;;;;;13.10;4.88;;;14.30;99.90;;;;;;5083611;28;20035;-70
2022/10/30 07:55:03;;;;;;;15.45;4.57;;;14.40;99.90;;;;;;5084421;28;20515;-70
2022/10/30 07:57:36;;;;;;;12.23;4.75;;;14.50;99.90;;;;;;5086351;28;20514;-70
2022/10/30 08:00:06;;;;;;;9.45;4.03;;;14.60;99.90;;;;;;5085008;28;20085;-69
2022/10/30 08:02:32;;;;;;;8.38;3.85;;;14.60;99.90;;;;;;5090001;28;20431;-70
2022/10/30 08:04:57;;;;;;;14.68;5.50;;;14.60;99.90;;;;;;5084632;28;20032;-70
2022/10/30 08:07:28;;;;;;;11.77;3.88;;;14.70;99.90;;;;;;5081607;28;20036;-71
2022/10/30 08:09:54;;;;;;;10.23;4.35;;;14.80;99.90;;;;;;5081704;28;20052;-70
2022/10/30 08:12:20;;;;;;;8.00;3.78;;;14.80;99.90;;;;;;5082946;28;20064;-70
2022/10/30 08:14:45;;;;;;;11.02;4.72;;;14.90;99.90;;;;;;5083742;28;20028;-70
2022/10/30 08:17:11;;;;;;;21.27;5.07;;;15.00;99.90;;;;;;5083536;28;20449;-70
2022/10/30 08:19:36;;;;;;;13.85;4.53;;;15.10;99.90;;;;;;5083054;28;20043;-70
2022/10/30 08:22:02;;;;;;;23.50;5.88;;;15.20;99.90;;;;;;5083600;28;20048;-70
2022/10/30 08:24:27;;;;;;;17.95;5.25;;;15.30;99.90;;;;;;5082926;28;20044;-70
2022/10/30 08:26:53;;;;;;;16.85;4.93;;;15.40;99.90;;;;;;5084192;28;20044;-70
2022/10/30 08:29:19;;;;;;;18.20;4.95;;;15.40;99.90;;;;;;5082732;28;20033;-74
2022/10/30 08:31:48;;;;;;;11.60;3.92;;;15.50;99.90;;;;;;5082377;28;20046;-69
2022/10/30 08:34:13;;;;;;;10.80;3.97;;;15.50;99.90;;;;;;5078325;28;20380;-70
2022/10/30 08:36:39;;;;;;;11.30;4.18;;;15.50;99.90;;;;;;5082028;28;20043;-70
2022/10/30 08:39:04;;;;;;;13.38;3.92;;;15.50;99.90;;;;;;5083474;28;20037;-69
2022/10/30 08:41:30;;;;;;;15.38;3.97;;;15.60;99.90;;;;;;5083658;28;20028;-71
2022/10/30 08:43:55;;;;;;;16.48;4.72;;;15.60;99.90;;;;;;5083118;28;20040;-71
2022/10/30 08:46:21;;;;;;;17.27;4.50;;;15.70;99.90;;;;;;5082120;28;20024;-70
2022/10/30 08:48:47;;;;;;;9.73;3.60;;;15.80;99.90;;;;;;5082966;28;20483;-69
2022/10/30 08:51:12;;;;;;;15.85;3.83;;;15.80;99.90;;;;;;5083547;28;20776;-70
2022/10/30 08:53:38;;;;;;;19.48;4.05;;;15.90;99.90;;;;;;5082218;28;20020;-70
2022/10/30 08:56:04;;;;;;;10.65;3.75;;;15.90;99.90;;;;;;5083347;28;20040;-70
2022/10/30 08:58:30;;;;;;;16.92;3.85;;;16.10;99.90;;;;;;5083198;28;20503;-69
2022/10/30 09:00:56;;;;;;;14.10;4.50;;;16.20;99.90;;;;;;5083545;28;20484;-70
2022/10/30 09:03:21;;;;;;;10.48;3.75;;;16.20;99.90;;;;;;5082266;28;20115;-69
2022/10/30 09:05:48;;;;;;;10.15;3.90;;;16.30;99.90;;;;;;5093014;27;20464;-70
2022/10/30 09:08:13;;;;;;;10.23;3.72;;;16.40;99.90;;;;;;5093804;28;20073;-69
2022/10/30 09:10:39;;;;;;;13.27;4.57;;;16.50;99.90;;;;;;5101814;28;20054;-70
2022/10/30 09:13:05;;;;;;;13.25;3.95;;;16.60;99.90;;;;;;5105693;28;20038;-70
2022/10/30 09:15:30;;;;;;;10.75;4.40;;;16.60;99.90;;;;;;5104580;28;20615;-69
2022/10/30 09:18:02;;;;;;;13.57;4.28;;;16.70;99.90;;;;;;5107707;28;20047;-71
2022/10/30 09:20:28;;;;;;;9.80;4.05;;;16.70;99.90;;;;;;5105260;27;20578;-69
2022/10/30 09:22:54;;;;;;;10.43;4.15;;;16.80;99.90;;;;;;5105790;28;20108;-71
2022/10/30 09:25:20;;;;;;;12.93;4.18;;;16.80;99.90;;;;;;5105634;27;20071;-69
2022/10/30 09:27:45;;;;;;;13.77;3.90;;;16.90;99.90;;;;;;5106977;27;20034;-70
2022/10/30 09:30:12;;;;;;;7.45;3.30;;;17.00;99.90;;;;;;5106408;27;20039;-71
2022/10/30 09:32:38;;;;;;;10.45;3.50;;;17.10;99.90;;;;;;5102045;28;20031;-69
2022/10/30 09:35:04;;;;;;;8.90;2.90;;;17.10;99.90;;;;;;5105636;27;20046;-71
2022/10/30 09:37:36;;;;;;;8.77;3.00;;;17.20;99.90;;;;;;5107939;27;20032;-69
2022/10/30 09:40:03;;;;;;;10.95;3.45;;;17.30;99.90;;;;;;5107558;28;20538;-69
2022/10/30 09:42:35;;;;;;;11.90;3.95;;;17.40;99.90;;;;;;5106536;27;20031;-70
2022/10/30 09:45:20;;;;;;;9.18;3.30;;;17.50;99.90;;;;;;5106668;27;20112;-71
2022/10/30 09:48:10;;;;;;;14.23;3.80;;;17.50;99.90;;;;;;5104473;28;20031;-71
2022/10/30 09:51:03;;;;;;;10.23;3.53;;;17.50;99.90;;;;;;5105460;28;20028;-71
2022/10/30 09:53:57;;;;;;;11.90;4.13;;;17.50;99.90;;;;;;5103288;28;20034;-72
2022/10/30 09:56:30;;;;;;;18.75;4.50;;;17.50;99.90;;;;;;5078079;27;20456;-70
2022/10/30 09:59:04;;;;;;;9.55;3.67;;;17.50;99.90;;;;;;5107447;27;20400;-69
2022/10/30 10:01:51;;;;;;;12.50;4.30;;;17.40;99.90;;;;;;5086402;28;20063;-70
2022/10/30 10:04:26;;;;;;;11.45;3.17;;;17.40;99.90;;;;;;5082825;28;20040;-70
2022/10/30 10:07:22;;;;;;;11.38;3.70;;;17.50;99.90;;;;;;5104789;28;20035;-70
2022/10/30 10:09:52;;;;;;;8.30;3.15;;;17.60;99.90;;;;;;5106921;28;20036;-71
2022/10/30 10:12:18;;;;;;;;;;;17.60;99.90;;;;;;5106927;28;20095;-70
2022/10/30 10:14:46;;;;;;;15.65;4.07;;;17.60;99.90;;;;;;5106422;28;20049;-71
2022/10/30 10:17:17;;;;;;;13.23;3.58;;;17.70;99.90;;;;;;5106590;28;20028;-70
2022/10/30 10:19:59;;;;;;;19.15;3.95;;;17.80;99.90;;;;;;5106537;28;20034;-70
2022/10/30 10:22:59;;;;;;;12.70;4.13;;;17.80;99.90;;;;;;5103405;28;20031;-69
2022/10/30 10:25:28;;;;;;;12.48;3.42;;;17.80;99.90;;;;;;5051564;28;20035;-70
2022/10/30 10:28:02;;;;;;;10.45;3.63;;;17.90;99.90;;;;;;5107016;28;20695;-70
2022/10/30 10:30:54;;;;;;;8.73;3.85;;;17.90;99.90;;;;;;5105303;27;20035;-69
2022/10/30 10:33:43;;;;;;;11.40;4.43;;;18.00;99.90;;;;;;5094267;28;20036;-70
2022/10/30 10:36:16;;;;;;;12.55;3.78;;;18.00;99.90;;;;;;5102686;27;20038;-70
2022/10/30 10:39:03;;;;;;;11.95;3.63;;;18.00;99.90;;;;;;5106182;28;20085;-71
2022/10/30 10:41:55;;;;;;;10.98;3.88;;;18.00;99.90;;;;;;5104010;27;20039;-69
2022/10/30 10:44:41;;;;;;;15.30;4.85;;;18.20;99.90;;;;;;5103033;28;20745;-70
2022/10/30 10:47:07;;;;;;;10.45;3.95;;;18.60;99.90;;;;;;5102620;28;20808;-71
2022/10/30 10:50:02;;;;;;;10.63;3.92;;;19.00;99.90;;;;;;5106011;28;20039;-71
2022/10/30 10:52:50;;;;;;;12.52;4.30;;;19.10;99.90;;;;;;5104033;27;20119;-70
2022/10/30 10:55:23;;;;;;;7.45;3.25;;;19.10;99.90;;;;;;5102106;28;20037;-69
2022/10/30 10:57:51;;;;;;;10.82;3.75;;;18.90;99.90;;;;;;5106072;27;20031;-72
2022/10/30 11:00:19;;;;;;;9.25;3.67;;;18.80;99.90;;;;;;5104136;28;20387;-71
2022/10/30 11:03:08;;;;;;;16.83;4.32;;;18.70;99.90;;;;;;5105587;28;20069;-71
2022/10/30 11:05:37;;;;;;;12.98;3.38;;;18.60;99.90;;;;;;5082407;28;20040;-69
2022/10/30 11:08:11;;;;;;;10.30;3.53;;;18.50;99.90;;;;;;5085710;28;20039;-71
2022/10/30 11:10:37;;;;;;;11.02;3.85;;;18.50;99.90;;;;;;5080586;28;20035;-69
2022/10/30 11:13:03;;;;;;;15.18;3.72;;;18.40;99.90;;;;;;5085072;28;20039;-70
2022/10/30 11:15:57;;;;;;;13.13;3.17;;;18.40;99.90;;;;;;5084589;28;20032;-69
2022/10/30 11:18:23;;;;;;;9.85;3.58;;;18.40;99.90;;;;;;5083685;28;20036;-69
2022/10/30 11:21:07;;;;;;;10.85;4.35;;;18.50;99.90;;;;;;5085078;28;20522;-70
2022/10/30 11:23:44;;;;;;;10.60;5.00;;;18.50;99.90;;;;;;5098974;28;20039;-70
2022/10/30 11:26:24;;;;;;;14.95;4.18;;;18.50;99.90;;;;;;5103216;28;20040;-70
2022/10/30 11:29:20;;;;;;;17.05;4.00;;;18.60;99.90;;;;;;5101722;28;20043;-69
2022/10/30 11:31:46;;;;;;;11.20;3.95;;;18.60;99.90;;;;;;5103356;28;20042;-71
2022/10/30 11:34:17;;;;;;;14.13;4.40;;;18.60;99.90;;;;;;5104679;28;20028;-71
2022/10/30 11:36:50;;;;;;;11.43;4.68;;;18.70;99.90;;;;;;5104206;28;20023;-70
2022/10/30 11:39:23;;;;;;;9.23;3.28;;;18.70;99.90;;;;;;5105465;27;20039;-69
2022/10/30 11:42:14;;;;;;;12.57;4.13;;;18.80;99.90;;;;;;5105424;28;20235;-71
2022/10/30 11:44:49;;;;;;;10.43;3.47;;;18.80;99.90;;;;;;5101002;27;20035;-71
2022/10/30 11:47:20;;;;;;;11.20;4.18;;;18.80;99.90;;;;;;5103608;28;20039;-71
2022/10/30 11:49:55;;;;;;;11.57;3.63;;;18.80;99.90;;;;;;5105227;28;20032;-71
2022/10/30 11:52:22;;;;;;;14.00;3.70;;;18.80;99.90;;;;;;5104362;27;20034;-74
2022/10/30 11:54:54;;;;;;;12.45;3.55;;;18.80;99.90;;;;;;5104747;28;20027;-69
2022/10/30 11:57:34;;;;;;;11.70;3.60;;;18.90;99.90;;;;;;5103058;28;20035;-70
2022/10/30 12:00:02;;;;;;;12.60;4.30;;;18.90;99.90;;;;;;5103379;28;20110;-71
2022/10/30 12:02:29;;;;;;;14.13;3.25;;;18.90;99.90;;;;;;5103269;27;20464;-70
2022/10/30 12:05:00;;;;;;;12.32;3.00;;;18.90;99.90;;;;;;5104526;28;20111;-70
2022/10/30 12:07:29;;;;;;;6.35;2.75;;;19.00;99.90;;;;;;5103398;27;20039;-69
2022/10/30 12:09:59;;;;;;;9.30;3.22;;;19.00;99.90;;;;;;5085168;28;20031;-70
2022/10/30 12:12:31;;;;;;;6.40;2.65;;;19.00;99.90;;;;;;5083992;28;20111;-69
2022/10/30 12:15:13;;;;;;;9.70;2.70;;;19.00;99.90;;;;;;5084388;28;20036;-70
2022/10/30 12:17:39;;;;;;;8.52;2.78;;;19.00;99.90;;;;;;5096144;28;20040;-70
2022/10/30 12:20:12;;;;;;;9.48;2.30;;;19.00;99.90;;;;;;5104229;28;20106;-71
2022/10/30 12:22:37;;;;;;;6.80;2.88;;;19.00;99.90;;;;;;5094493;28;20044;-71
2022/10/30 12:25:14;;;;;;;11.90;2.67;;;19.00;99.90;;;;;;5103400;28;20043;-69
2022/10/30 12:27:40;;;;;;;6.95;2.80;;;19.00;99.90;;;;;;5104183;28;20043;-71
2022/10/30 12:30:17;;;;;;;12.40;3.00;;;19.00;99.90;;;;;;5103999;28;20038;-69
2022/10/30 12:32:47;;;;;;;10.73;3.00;;;19.00;99.90;;;;;;5103667;28;20055;-70
2022/10/30 12:35:39;;;;;;;13.13;2.78;;;19.00;99.90;;;;;;5097847;28;20078;-70
2022/10/30 12:38:14;;;;;;;10.00;2.92;;;19.00;99.90;;;;;;5096698;28;20753;-71
2022/10/30 12:40:45;;;;;;;8.18;3.15;;;19.00;99.90;;;;;;5103466;28;20035;-70
2022/10/30 12:43:27;;;;;;;8.52;2.97;;;19.00;99.90;;;;;;5103228;28;20039;-69
2022/10/30 12:46:02;;;;;;;15.23;2.90;;;19.00;99.90;;;;;;5105497;27;20051;-68
2022/10/30 12:48:46;;;;;;;9.18;2.80;;;19.00;99.90;;;;;;5103292;28;20040;-68
2022/10/30 12:51:34;;;;;;;9.35;3.45;;;19.00;99.90;;;;;;5105665;28;20591;-70